Detroit, Michigan
Traffic Map
Current Weather Conditions
Detroit, Michigan
Overcast
Overcast

Feels Like: 0°
Wind Chill: Ceiling: 700
Heat Index: Visibility: 10mi
Dew Point: Wind: 13mph
Humidity: 93% Direction: 260° (W)
Pressure: 29.91in Gusts: 0mph
Raw Report DataCYQG 180600Z 26011KT 10SM OVC007 04/03 A2991 RMK SF8 SLP134
Traffic Incident Summary
Active as of:
Severity:
Category:
InformationThere was an issue retrieving the traffic information for this location. Please try a different location or try again shortly.
Advertisements
Track Severe Weather on mobile